Terminal Aerodrome Forecast
Issued by NWS

Home | Current Version | Previous Version | Text Only | Print | Product List | Glossary On
Versions: 1 2 3 4 5 6 7 8 9 10 11 12 13 14 15
000
FTUS42 KFFC 281131
TAFRYY
TAF
KRYY 281131Z 2812/2912 03003KT P6SM BKN200
     FM281500 09008KT P6SM SCT050 BKN120
     FM282000 10007G15KT P6SM SCT025 BKN050 OVC100
     FM290000 05008KT P6SM VCSH BKN025
     FM290200 04006KT 5SM -RA BR OVC015 PROB30 2906/2912 3SM RA BR
      OVC008=

USA.gov is the U.S. government's official web portal to all federal, state and local government web resources and services.